Parker Lake, Arizona
Current Conditions -  °F | °C
As of 6:55 AM on Tuesday 27 Jan 2015 (Local Time) from KFHU Reporting Station
Scattered Clouds Scattered Clouds  
Wind Chill: 42°   Ceiling: Unl
Heat Index: 46°   Visibility: 10mi
Dew Point: 37°   Wind: 8mph
Humidity: 71%   Direction: 170°S
Pressure: 30.3"   Gusts: NA
Location:  31.4041°N, 110.306°W
Report Text: KFHU 271355Z 17007KT 10SM SCT045 08/03 A3030 RMK SLP239
Loading
Personal Weather Stations






























Interactive Weather Map New forecast layout! Learn more

10-Day Weather Forecast

Advertisements
Track Severe Weather on mobile